SAS105 ELLX-EDDS
Flight info
| Callsign | SAS105 |
|---|---|
| Flight time | 0h 26m |
| Altitude | 19000 |
| Route | EXCOS DCT LADAT M150 KRH |
| Aircraft | B77W/H-SDE1E2E3FGHIJ2J3J4J5M1RWXY/LB1D1 |
Departure
| Time | 2026-05-08 09:08 |
|---|---|
| Airport | Luxembourg-Findel International Airport (ELLX) |
Arrival
| Time | 2026-05-08 09:34 |
|---|---|
| Airport | Stuttgart Airport (EDDS) |
| Time | Latitude | Longitude | Altitude | Speed | Heading |
|---|---|---|---|---|---|
| 2026-05-08 08:56 | 49.63253 | 6.21955 | 1253 ft | 0 kts | 206° |
| 2026-05-08 09:03 | 49.63249 | 6.21952 | 1256 ft | 1 kts | 206° |
| 2026-05-08 09:03 | 49.63234 | 6.21941 | 1262 ft | 4 kts | 206° |
| 2026-05-08 09:03 | 49.63197 | 6.21912 | 1258 ft | 8 kts | 206° |
| 2026-05-08 09:03 | 49.63146 | 6.21853 | 1255 ft | 11 kts | 229° |
| 2026-05-08 09:04 | 49.63092 | 6.21696 | 1248 ft | 23 kts | 248° |
| 2026-05-08 09:04 | 49.63021 | 6.21469 | 1246 ft | 23 kts | 243° |
| 2026-05-08 09:04 | 49.62950 | 6.21243 | 1255 ft | 23 kts | 244° |
| 2026-05-08 09:04 | 49.62879 | 6.21016 | 1258 ft | 23 kts | 245° |
| 2026-05-08 09:05 | 49.62809 | 6.20789 | 1254 ft | 23 kts | 243° |
| 2026-05-08 09:05 | 49.62693 | 6.20616 | 1257 ft | 23 kts | 218° |
| 2026-05-08 09:05 | 49.62578 | 6.20438 | 1260 ft | 23 kts | 229° |
| 2026-05-08 09:05 | 49.62475 | 6.20228 | 1249 ft | 27 kts | 238° |
| 2026-05-08 09:06 | 49.62374 | 6.19952 | 1222 ft | 32 kts | 240° |
| 2026-05-08 09:06 | 49.62255 | 6.19635 | 1206 ft | 36 kts | 239° |
| 2026-05-08 09:06 | 49.62121 | 6.19282 | 1187 ft | 40 kts | 240° |
| 2026-05-08 09:06 | 49.62005 | 6.18971 | 1171 ft | 28 kts | 240° |
| 2026-05-08 09:07 | 49.61912 | 6.18773 | 1163 ft | 23 kts | 222° |
| 2026-05-08 09:07 | 49.61773 | 6.18765 | 1169 ft | 23 kts | 124° |
| 2026-05-08 09:07 | 49.61793 | 6.18874 | 1172 ft | 11 kts | 61° |
| 2026-05-08 09:07 | 49.61874 | 6.19100 | 1181 ft | 40 kts | 61° |
| 2026-05-08 09:08 | 49.62154 | 6.19841 | 1217 ft | 120 kts | 59° |
| 2026-05-08 09:08 | 49.62694 | 6.21252 | 1362 ft | 176 kts | 61° |
| 2026-05-08 09:08 | 49.63328 | 6.22881 | 2185 ft | 179 kts | 63° |
| 2026-05-08 09:08 | 49.63859 | 6.24614 | 3086 ft | 179 kts | 73° |
| 2026-05-08 09:09 | 49.63833 | 6.26532 | 3700 ft | 191 kts | 114° |
| 2026-05-08 09:09 | 49.63180 | 6.28297 | 4445 ft | 190 kts | 118° |
| 2026-05-08 09:09 | 49.62544 | 6.30165 | 4990 ft | 209 kts | 117° |
| 2026-05-08 09:09 | 49.61840 | 6.32317 | 5288 ft | 241 kts | 116° |
| 2026-05-08 09:10 | 49.61070 | 6.34709 | 5953 ft | 255 kts | 117° |
| 2026-05-08 09:10 | 49.60272 | 6.37231 | 6743 ft | 268 kts | 117° |
| 2026-05-08 09:10 | 49.59460 | 6.39826 | 7560 ft | 277 kts | 117° |
| 2026-05-08 09:10 | 49.58617 | 6.42534 | 8450 ft | 283 kts | 117° |
| 2026-05-08 09:11 | 49.57756 | 6.45300 | 9393 ft | 290 kts | 117° |
| 2026-05-08 09:11 | 49.56898 | 6.48150 | 10286 ft | 297 kts | 114° |
| 2026-05-08 09:11 | 49.56161 | 6.51223 | 10826 ft | 317 kts | 110° |
| 2026-05-08 09:11 | 49.55434 | 6.54608 | 11075 ft | 349 kts | 109° |
| 2026-05-08 09:12 | 49.54657 | 6.58320 | 11416 ft | 376 kts | 109° |
| 2026-05-08 09:12 | 49.53840 | 6.62210 | 12275 ft | 387 kts | 109° |
| 2026-05-08 09:12 | 49.52996 | 6.66179 | 13426 ft | 393 kts | 109° |
| 2026-05-08 09:12 | 49.52130 | 6.70204 | 14536 ft | 398 kts | 110° |
| 2026-05-08 09:13 | 49.51242 | 6.74290 | 15578 ft | 404 kts | 110° |
| 2026-05-08 09:13 | 49.50338 | 6.78414 | 16596 ft | 410 kts | 110° |
| 2026-05-08 09:13 | 49.49416 | 6.82603 | 17606 ft | 417 kts | 110° |
| 2026-05-08 09:13 | 49.48477 | 6.86853 | 18583 ft | 423 kts | 110° |
| 2026-05-08 09:14 | 49.47523 | 6.91157 | 19100 ft | 426 kts | 110° |
| 2026-05-08 09:14 | 49.46544 | 6.95560 | 19102 ft | 442 kts | 110° |
| 2026-05-08 09:14 | 49.45542 | 7.00062 | 19105 ft | 447 kts | 110° |
| 2026-05-08 09:14 | 49.44546 | 7.04528 | 19105 ft | 447 kts | 110° |
| 2026-05-08 09:15 | 49.43539 | 7.09042 | 19102 ft | 447 kts | 110° |
| 2026-05-08 09:15 | 49.42531 | 7.13546 | 19098 ft | 446 kts | 110° |
| 2026-05-08 09:15 | 49.41520 | 7.18054 | 19096 ft | 446 kts | 110° |
| 2026-05-08 09:15 | 49.40503 | 7.22576 | 19099 ft | 447 kts | 110° |
| 2026-05-08 09:16 | 49.39487 | 7.27083 | 19105 ft | 447 kts | 110° |
| 2026-05-08 09:16 | 49.38466 | 7.31603 | 19104 ft | 448 kts | 110° |
| 2026-05-08 09:16 | 49.37444 | 7.36120 | 19108 ft | 448 kts | 110° |
| 2026-05-08 09:16 | 49.36417 | 7.40646 | 19109 ft | 449 kts | 110° |
| 2026-05-08 09:17 | 49.35389 | 7.45168 | 19108 ft | 449 kts | 110° |
| 2026-05-08 09:17 | 49.34359 | 7.49693 | 19112 ft | 450 kts | 110° |
| 2026-05-08 09:17 | 49.33325 | 7.54223 | 19105 ft | 450 kts | 110° |
| 2026-05-08 09:17 | 49.32298 | 7.58716 | 18797 ft | 444 kts | 110° |
| 2026-05-08 09:18 | 49.31278 | 7.63168 | 18189 ft | 439 kts | 110° |
| 2026-05-08 09:18 | 49.30273 | 7.67546 | 17538 ft | 433 kts | 110° |
| 2026-05-08 09:18 | 49.29280 | 7.71864 | 16897 ft | 427 kts | 110° |
| 2026-05-08 09:18 | 49.28296 | 7.76131 | 16229 ft | 423 kts | 110° |
| 2026-05-08 09:19 | 49.27319 | 7.80358 | 15553 ft | 419 kts | 110° |
| 2026-05-08 09:19 | 49.26280 | 7.84496 | 14908 ft | 414 kts | 115° |
| 2026-05-08 09:19 | 49.24969 | 7.88393 | 14270 ft | 410 kts | 120° |
| 2026-05-08 09:19 | 49.23592 | 7.92138 | 13608 ft | 407 kts | 120° |
| 2026-05-08 09:20 | 49.22215 | 7.95904 | 12969 ft | 402 kts | 120° |
| 2026-05-08 09:20 | 49.20867 | 7.99610 | 12398 ft | 396 kts | 120° |
| 2026-05-08 09:20 | 49.19537 | 8.03282 | 11715 ft | 394 kts | 120° |
| 2026-05-08 09:20 | 49.18217 | 8.06936 | 11074 ft | 391 kts | 120° |
| 2026-05-08 09:21 | 49.16835 | 8.10457 | 10473 ft | 383 kts | 127° |
| 2026-05-08 09:21 | 49.15082 | 8.13488 | 10279 ft | 383 kts | 137° |
| 2026-05-08 09:22 | 49.03462 | 8.29432 | 10079 ft | 343 kts | 140° |
| 2026-05-08 09:23 | 49.01722 | 8.31781 | 10080 ft | 326 kts | 141° |
| 2026-05-08 09:23 | 49.00066 | 8.34017 | 10057 ft | 310 kts | 140° |
| 2026-05-08 09:23 | 48.98492 | 8.36140 | 10080 ft | 295 kts | 140° |
| 2026-05-08 09:23 | 48.96964 | 8.38195 | 10090 ft | 295 kts | 140° |
| 2026-05-08 09:24 | 48.95420 | 8.40265 | 10091 ft | 295 kts | 140° |
| 2026-05-08 09:24 | 48.93882 | 8.42327 | 10094 ft | 293 kts | 140° |
| 2026-05-08 09:24 | 48.92354 | 8.44373 | 10082 ft | 292 kts | 140° |
| 2026-05-08 09:24 | 48.90835 | 8.46407 | 10087 ft | 290 kts | 140° |
| 2026-05-08 09:25 | 48.89341 | 8.48410 | 10089 ft | 289 kts | 140° |
| 2026-05-08 09:25 | 48.87835 | 8.50430 | 10098 ft | 289 kts | 141° |
| 2026-05-08 09:25 | 48.86323 | 8.52456 | 10095 ft | 290 kts | 140° |
| 2026-05-08 09:25 | 48.84810 | 8.54481 | 10082 ft | 290 kts | 140° |
| 2026-05-08 09:26 | 48.83295 | 8.56505 | 10067 ft | 290 kts | 140° |
| 2026-05-08 09:26 | 48.81783 | 8.58522 | 9846 ft | 289 kts | 141° |
| 2026-05-08 09:26 | 48.80278 | 8.60532 | 9532 ft | 287 kts | 141° |
| 2026-05-08 09:26 | 48.78784 | 8.62527 | 9191 ft | 286 kts | 140° |
| 2026-05-08 09:27 | 48.77297 | 8.64513 | 8874 ft | 284 kts | 141° |
| 2026-05-08 09:27 | 48.75823 | 8.66481 | 8545 ft | 282 kts | 140° |
| 2026-05-08 09:27 | 48.74352 | 8.68439 | 8211 ft | 280 kts | 140° |
| 2026-05-08 09:27 | 48.72890 | 8.70385 | 7896 ft | 279 kts | 140° |
| 2026-05-08 09:28 | 48.71437 | 8.72320 | 7593 ft | 277 kts | 140° |
| 2026-05-08 09:28 | 48.69990 | 8.74250 | 7250 ft | 278 kts | 140° |
| 2026-05-08 09:28 | 48.68535 | 8.76188 | 6960 ft | 277 kts | 140° |
| 2026-05-08 09:28 | 48.67094 | 8.78105 | 6680 ft | 275 kts | 140° |
| 2026-05-08 09:29 | 48.65751 | 8.80123 | 6353 ft | 272 kts | 127° |
| 2026-05-08 09:29 | 48.64867 | 8.82676 | 5921 ft | 276 kts | 115° |
| 2026-05-08 09:29 | 48.64105 | 8.85326 | 5641 ft | 273 kts | 115° |
| 2026-05-08 09:29 | 48.63364 | 8.87903 | 5289 ft | 262 kts | 111° |
| 2026-05-08 09:30 | 48.63094 | 8.90521 | 5037 ft | 247 kts | 84° |
| 2026-05-08 09:30 | 48.63448 | 8.92973 | 4859 ft | 230 kts | 75° |
| 2026-05-08 09:30 | 48.63866 | 8.95245 | 4591 ft | 221 kts | 74° |
| 2026-05-08 09:30 | 48.64277 | 8.97409 | 4420 ft | 213 kts | 74° |
| 2026-05-08 09:31 | 48.64687 | 8.99557 | 4140 ft | 207 kts | 74° |
| 2026-05-08 09:31 | 48.65080 | 9.01620 | 3855 ft | 200 kts | 74° |
| 2026-05-08 09:31 | 48.65446 | 9.03546 | 3585 ft | 187 kts | 74° |
| 2026-05-08 09:31 | 48.65800 | 9.05411 | 3345 ft | 180 kts | 74° |
| 2026-05-08 09:32 | 48.66134 | 9.07169 | 3107 ft | 169 kts | 75° |
| 2026-05-08 09:32 | 48.66452 | 9.08844 | 2887 ft | 163 kts | 75° |
| 2026-05-08 09:32 | 48.66760 | 9.10465 | 2657 ft | 157 kts | 74° |
| 2026-05-08 09:32 | 48.67052 | 9.12008 | 2472 ft | 151 kts | 73° |
| 2026-05-08 09:33 | 48.67344 | 9.13544 | 2274 ft | 154 kts | 73° |
| 2026-05-08 09:33 | 48.67638 | 9.15114 | 2062 ft | 155 kts | 73° |
| 2026-05-08 09:33 | 48.67938 | 9.16677 | 1836 ft | 154 kts | 73° |
| 2026-05-08 09:33 | 48.68232 | 9.18237 | 1622 ft | 154 kts | 73° |
| 2026-05-08 09:34 | 48.68525 | 9.19791 | 1384 ft | 154 kts | 73° |
| 2026-05-08 09:34 | 48.68827 | 9.21334 | 1268 ft | 148 kts | 73° |
| 2026-05-08 09:34 | 48.69072 | 9.22621 | 1229 ft | 105 kts | 73° |
| 2026-05-08 09:34 | 48.69224 | 9.23399 | 1214 ft | 48 kts | 68° |
| 2026-05-08 09:35 | 48.69378 | 9.23690 | 1209 ft | 29 kts | 41° |
| 2026-05-08 09:35 | 48.69397 | 9.23713 | 1210 ft | 0 kts | 37° |
| 2026-05-08 09:35 | 48.69400 | 9.23716 | 1210 ft | 3 kts | 36° |
| 2026-05-08 09:36 | 48.69466 | 9.23742 | 1212 ft | 13 kts | 354° |
| 2026-05-08 09:36 | 48.69519 | 9.23648 | 1217 ft | 13 kts | 272° |
| 2026-05-08 09:36 | 48.69499 | 9.23515 | 1220 ft | 13 kts | 253° |
| 2026-05-08 09:36 | 48.69474 | 9.23383 | 1223 ft | 13 kts | 254° |
| 2026-05-08 09:37 | 48.69441 | 9.23211 | 1226 ft | 21 kts | 254° |
| 2026-05-08 09:37 | 48.69396 | 9.22971 | 1231 ft | 24 kts | 254° |
| 2026-05-08 09:37 | 48.69351 | 9.22727 | 1246 ft | 24 kts | 254° |
| 2026-05-08 09:37 | 48.69306 | 9.22483 | 1254 ft | 24 kts | 254° |
| 2026-05-08 09:38 | 48.69258 | 9.22240 | 1257 ft | 24 kts | 253° |
| 2026-05-08 09:38 | 48.69211 | 9.21997 | 1259 ft | 24 kts | 254° |
| 2026-05-08 09:38 | 48.69165 | 9.21754 | 1261 ft | 24 kts | 254° |
| 2026-05-08 09:38 | 48.69119 | 9.21510 | 1274 ft | 24 kts | 254° |
| 2026-05-08 09:39 | 48.69073 | 9.21267 | 1275 ft | 24 kts | 254° |
| 2026-05-08 09:39 | 48.69026 | 9.21023 | 1279 ft | 24 kts | 254° |
| 2026-05-08 09:39 | 48.68981 | 9.20780 | 1281 ft | 24 kts | 254° |
| 2026-05-08 09:39 | 48.69000 | 9.20569 | 1288 ft | 21 kts | 315° |
| 2026-05-08 09:40 | 48.69059 | 9.20417 | 1295 ft | 10 kts | 252° |
| 2026-05-08 09:40 | 48.69040 | 9.20313 | 1299 ft | 10 kts | 261° |
| 2026-05-08 09:40 | 48.69059 | 9.20267 | 1302 ft | 4 kts | 344° |
| 2026-05-08 09:40 | 48.69085 | 9.20256 | 1302 ft | 4 kts | 344° |
| 2026-05-08 09:41 | 48.69105 | 9.20247 | 1303 ft | 0 kts | 344° |